Latest Weather Observations for Nerriga

IDN60801

Issued at 8:42 pm EST Wednesday 5 August 2020 (issued every 10 minutes, with the page automatically refreshed every 10 minutes)

About weather observations | Map of weather stations | Latest weather observations for NSW | Other Formats
Station Details ID: 069128 Name: NERRIGA AWS Lat: -35.11 Lon: 150.08 Height: 622.0 m
Data from the previous 72 hours. | See also: Recent months at Nerriga
Date/Time
EST
Temp
°C
App
Temp
°C
Dew
Point
°C
Rel
Hum
%
Delta-T
°C
Wind Press
QNH
hPa
Press
MSL
hPa
Rain since
9am
mm
Dir  Spd
km/h
Gust
km/h
Spd
kts
Gust
kts
05/08:30pm 3.6 -2.3 -1.0 72 1.8 W 20 32 11 17 1014.2 1014.9 0.0
05/08:00pm 4.0 -2.0 -1.2 69 2.0 WNW 20 30 11 16 1014.0 1014.7 0.0
05/07:30pm 4.3 -2.8 -1.5 66 2.2 WNW 26 41 14 22 1013.7 1014.3 0.0
05/07:00pm 4.2 -2.2 -1.6 66 2.2 WNW 22 39 12 21 1013.6 1014.2 0.0
05/06:30pm 4.1 -3.4 -1.5 67 2.1 W 28 39 15 21 1012.7 1013.4 0.0
05/06:24pm 4.2 -3.7 -1.6 66 2.2 WNW 30 50 16 27 1012.8 1013.5 0.0
05/06:00pm 4.4 -3.1 -1.6 65 2.3 WNW 28 41 15 22 1012.6 1013.3 0.0
05/05:33pm 4.8 -3.1 -1.8 62 2.5 WNW 30 50 16 27 1012.3 1012.9 0.0
05/05:30pm 4.7 -3.8 -1.7 63 2.4 WNW 33 50 18 27 1012.2 1012.8 0.0
05/05:06pm 5.9 -2.1 -2.4 55 3.1 WNW 30 50 16 27 1011.7 1012.4 0.0
05/05:00pm 6.1 -1.2 -2.5 54 3.2 WNW 26 41 14 22 1011.7 1012.4 0.0
05/04:38pm 6.9 -1.1 -2.5 51 3.6 WNW 30 54 16 29 1011.3 1012.0 0.0
05/04:30pm 7.1 -1.5 -2.9 49 3.8 WNW 33 48 18 26 1011.3 1012.0 0.0
05/04:00pm 8.0 -0.5 -2.9 46 4.2 WNW 32 46 17 25 1010.8 1011.4 0.0
05/03:30pm 8.4 0.5 -1.4 50 3.9 WNW 30 44 16 24 1010.7 1011.3 0.0
05/03:04pm 8.5 1.0 -1.6 49 4.0 WNW 28 46 15 25 1010.5 1011.1 0.0
05/03:00pm 8.6 1.5 -1.2 50 3.9 WNW 26 35 14 19 1010.4 1011.0 0.0
05/02:30pm 8.3 -0.4 -0.4 54 3.5 WNW 35 44 19 24 1010.2 1010.8 0.0
05/02:00pm 8.4 0.3 -0.4 54 3.6 WNW 32 44 17 24 1010.3 1010.9 0.0
05/01:30pm 8.8 0.7 -0.2 53 3.7 W 32 46 17 25 1010.5 1011.1 0.0
05/01:06pm 8.0 -0.9 -1.8 50 3.8 WNW 35 56 19 30 1009.7 1010.4 0.0
05/01:00pm 8.3 -0.1 -0.7 53 3.6 WNW 33 48 18 26 1010.2 1010.8 0.0
05/12:30pm 8.1 -0.2 -0.4 55 3.5 WNW 33 54 18 29 1010.0 1010.7 0.0
05/12:00pm 6.9 -2.9 -0.3 60 2.9 WNW 41 54 22 29 1010.3 1010.9 0.0
05/11:30am 6.1 -3.0 -0.8 61 2.7 NW 37 50 20 27 1010.7 1011.3 0.0
05/11:07am 6.3 -1.1 -0.9 60 2.8 WNW 28 46 15 25 1010.8 1011.4 0.0
05/11:00am 6.4 -1.0 -0.8 60 2.8 WNW 28 44 15 24 1011.0 1011.6 0.0
05/10:30am 5.8 -2.4 -1.1 61 2.7 WNW 32 52 17 28 1010.9 1011.5 0.0
05/10:27am 5.7 -2.6 -1.7 59 2.8 WNW 32 52 17 28 1010.8 1011.4 0.0
05/10:00am 4.9 -3.3 -1.1 65 2.3 WNW 32 44 17 24 1010.8 1011.4 0.0
05/09:30am 3.9 -4.4 -1.5 68 2.0 WNW 32 44 17 24 1010.8 1011.4 0.0
05/09:00am 3.5 -2.5 -1.6 69 1.9 NW 20 32 11 17 1011.0 1011.6 0.0
05/08:30am 2.5 -3.9 -2.0 72 1.6 NW 22 35 12 19 1010.8 1011.4 0.0
05/08:00am 1.8 -4.1 -2.5 73 1.5 WNW 19 30 10 16 1010.7 1011.3 0.0
05/07:47am 1.4 -6.2 -2.4 76 1.4 WNW 28 46 15 25 1010.4 1011.0 0.0
05/07:30am 1.2 -6.4 -2.5 76 1.4 WNW 28 37 15 20 1010.3 1010.9 0.0
05/07:00am 0.7 -5.9 -2.9 77 1.3 WNW 22 37 12 20 1010.2 1010.8 0.0
05/06:43am 1.0 -7.0 -2.7 76 1.4 WNW 30 50 16 27 1010.3 1010.9 0.0
05/06:30am 1.1 -6.9 -2.6 76 1.4 WNW 30 44 16 24 1009.7 1010.4 0.0
05/06:00am 0.8 -5.1 -2.4 79 1.2 NW 19 30 10 16 1010.0 1010.7 0.0
05/05:30am 0.1 -5.4 -2.1 85 0.8 NW 17 22 9 12 1009.9 1010.6 0.0
05/05:00am -0.2 -5.7 -2.3 86 0.7 NNW 17 20 9 11 1009.8 1010.5 0.0
05/04:30am -0.6 -5.8 -2.8 85 0.7 NNW 15 19 8 10 1009.7 1010.4 0.0
05/04:00am -0.4 -5.6 -2.8 84 0.8 NW 15 19 8 10 1010.2 1010.8 0.0
05/03:30am -0.6 -5.8 -3.1 83 0.8 NW 15 19 8 10 1010.9 1011.5 0.0
05/03:00am -0.5 -5.0 -3.0 83 0.8 NW 11 15 6 8 1011.2 1011.9 0.0
05/02:30am -0.1 -5.3 -2.8 82 0.9 NW 15 19 8 10 1011.5 1012.2 0.0
05/02:00am 0.1 -5.1 -2.8 81 1.0 NW 15 20 8 11 1011.7 1012.4 0.0
05/01:30am 0.6 -5.0 -2.6 79 1.2 WNW 17 22 9 12 1012.1 1012.7 0.0
05/01:00am 1.4 -4.6 -2.7 74 1.5 WNW 19 24 10 13 1012.3 1012.9 0.0
05/12:30am 1.4 -4.8 -3.1 72 1.7 WNW 20 35 11 19 1012.5 1013.2 0.0
05/12:00am 2.0 -3.6 -3.1 69 1.8 WNW 17 28 9 15 1012.5 1013.2 0.0
 
Date/Time
EST
Temp
°C
App
Temp
°C
Dew
Point
°C
Rel
Hum
%
Delta-T
°C
Wind Press
QNH
hPa
Press
MSL
hPa
Rain since
9am
mm
Dir  Spd
km/h
Gust
km/h
Spd
kts
Gust
kts
04/11:30pm 1.8 -3.5 -3.3 69 1.8 WNW 15 24 8 13 1012.6 1013.3 0.0
04/11:00pm 1.6 -3.0 -4.1 66 2.1 WNW 11 15 6 8 1012.8 1013.5 0.0
04/10:30pm 2.0 -3.0 -3.9 65 2.2 WNW 13 22 7 12 1012.8 1013.5 0.0
04/10:00pm 2.1 -3.7 -4.2 63 2.3 WNW 17 28 9 15 1012.8 1013.5 0.0
04/09:30pm 2.4 -4.3 -4.1 62 2.2 W 22 32 12 17 1012.7 1013.4 0.0
04/09:00pm 2.9 -4.6 -4.3 59 2.5 WNW 26 37 14 20 1012.2 1012.8 0.0
04/08:30pm 3.2 -3.9 -4.3 58 2.6 WNW 24 35 13 19 1011.9 1012.5 0.0
04/08:00pm 3.8 -4.7 -3.7 58 2.7 W 32 44 17 24 1011.7 1012.4 0.0
04/07:30pm 4.3 -5.2 -3.7 56 2.9 WNW 37 52 20 28 1011.2 1011.9 0.0
04/07:00pm 4.7 -4.0 -3.6 55 3.0 WNW 33 48 18 26 1011.3 1012.0 0.0
04/06:30pm 5.0 -3.5 -3.5 54 3.1 WNW 32 44 17 24 1010.9 1011.5 0.0
04/06:21pm 4.8 -3.4 -3.7 54 3.1 WNW 30 48 16 26 1011.0 1011.6 0.0
04/06:00pm 5.7 -3.1 -3.9 50 3.5 WNW 33 44 18 24 1010.7 1011.3 0.0
04/05:30pm 6.3 -1.9 -3.9 48 3.7 WNW 30 50 16 27 1010.5 1011.1 0.0
04/05:28pm 6.3 -1.9 -3.9 48 3.7 WNW 30 50 16 27 1010.5 1011.1 0.0
04/05:00pm 7.0 -0.3 -3.0 49 3.8 W 26 44 14 24 1010.4 1011.0 0.0
04/04:35pm 7.9 -0.2 -3.0 46 4.1 WNW 30 57 16 31 1009.8 1010.5 0.0
04/04:30pm 8.1 0.4 -2.8 46 4.2 WNW 28 44 15 24 1009.9 1010.6 0.0
04/04:00pm 8.9 1.2 -0.4 52 3.8 WNW 30 50 16 27 1009.4 1010.0 0.0
04/03:57pm 8.8 0.7 -0.5 52 3.8 WNW 32 50 17 27 1009.2 1009.8 0.0
04/03:42pm 9.4 1.1 -0.5 50 4.1 WNW 33 46 18 25 1008.9 1009.5 0.0
04/03:30pm 9.8 0.4 -0.1 50 4.1 NW 39 52 21 28 1008.6 1009.2 0.0
04/03:01pm 10.2 2.1 1.3 54 3.8 WNW 33 52 18 28 1008.6 1009.2 0.0
04/03:00pm 10.3 2.2 0.9 52 4.0 WNW 33 48 18 26 1008.6 1009.2 0.0
04/02:32pm 10.5 1.0 1.9 55 3.8 WNW 41 61 22 33 1008.1 1008.7 0.0
04/02:30pm 10.8 1.8 2.6 57 3.7 WNW 39 54 21 29 1008.3 1009.0 0.0
04/02:00pm 11.7 2.5 3.7 58 3.7 NW 41 65 22 35 1008.5 1009.1 0.0
04/01:30pm 11.9 2.9 4.4 60 3.5 NW 41 59 22 32 1008.3 1009.0 0.0
04/01:11pm 11.0 2.3 4.2 63 3.2 WNW 39 61 21 33 1008.6 1009.2 0.0
04/01:08pm 10.7 2.0 4.0 63 3.1 WNW 39 61 21 33 1008.2 1008.8 0.0
04/01:00pm 10.2 1.8 3.9 65 2.9 WNW 37 59 20 32 1008.6 1009.2 0.0
04/12:39pm 10.7 2.0 4.2 64 3.0 NW 39 57 21 31 1008.5 1009.1 0.0
04/12:30pm 10.9 2.3 4.4 64 3.0 WNW 39 56 21 30 1008.7 1009.3 0.0
04/12:02pm 12.2 3.9 4.4 59 3.7 WNW 37 59 20 32 1008.7 1009.3 0.0
04/12:00pm 12.3 4.1 4.8 60 3.6 NW 37 50 20 27 1009.0 1009.6 0.0
04/11:38am 11.8 3.0 3.8 58 3.7 NW 39 57 21 31 1009.0 1009.6 0.0
04/11:30am 12.2 4.4 4.9 61 3.5 NW 35 54 19 29 1009.3 1009.9 0.0
04/11:22am 12.2 3.6 4.7 60 3.6 NW 39 59 21 32 1009.3 1009.9 0.0
04/11:00am 11.7 2.8 3.0 55 4.0 WNW 39 57 21 31 1009.5 1010.1 0.0
04/10:51am 11.6 3.7 2.4 53 4.1 NW 33 57 18 31 1009.5 1010.1 0.0
04/10:30am 11.6 3.9 3.4 57 3.8 NW 33 43 18 23 1009.6 1010.2 0.0
04/10:12am 11.4 3.7 3.4 58 3.7 NW 33 52 18 28 1009.7 1010.4 0.0
04/10:00am 11.1 3.4 3.4 59 3.5 NW 33 52 18 28 1009.8 1010.5 0.0
04/09:30am 10.3 2.2 3.3 62 3.2 NW 35 48 19 26 1009.9 1010.6 0.0
04/09:00am 9.7 3.3 3.2 64 2.9 NW 26 37 14 20 1010.6 1011.2 0.0
04/08:30am 9.1 1.5 3.1 66 2.7 NW 32 43 17 23 1010.6 1011.2 0.0
04/08:19am 8.9 1.7 2.9 66 2.7 NW 30 43 16 23 1010.6 1011.2 0.0
04/08:00am 7.9 3.4 2.4 68 2.4 NW 15 20 8 11 1011.0 1011.6 0.0
04/07:30am 6.4 1.8 1.5 71 2.0 NW 15 20 8 11 1011.0 1011.6 0.0
04/07:00am 5.7 0.7 1.2 73 1.9 NW 17 24 9 13 1010.9 1011.5 0.0
04/06:30am 6.5 1.2 1.8 72 2.0 NW 19 24 10 13 1011.0 1011.6 0.0
04/06:00am 6.7 1.3 2.2 73 1.9 NW 20 26 11 14 1011.0 1011.6 0.0
04/05:30am 6.2 2.1 2.5 77 1.6 NW 13 17 7 9 1011.2 1011.9 0.0
04/05:00am 6.4 3.2 3.0 79 1.5 NNW 9 15 5 8 1011.5 1012.2 0.0
04/04:30am 6.0 2.4 2.8 80 1.4 NNW 11 15 6 8 1011.7 1012.4 0.0
04/04:00am 6.0 2.0 2.8 80 1.4 NNW 13 19 7 10 1012.0 1012.6 0.0
04/03:30am 6.2 2.2 2.8 79 1.5 NW 13 17 7 9 1012.2 1012.8 0.0
04/03:00am 6.2 3.3 2.8 79 1.5 NW 7 11 4 6 1012.5 1013.2 0.0
04/02:30am 6.6 3.4 3.0 78 1.6 WNW 9 15 5 8 1012.9 1013.6 0.0
04/02:00am 6.0 2.4 3.0 81 1.3 WNW 11 13 6 7 1013.0 1013.7 0.0
04/01:30am 7.2 4.5 3.6 78 1.6 WNW 7 9 4 5 1013.4 1014.1 0.0
04/01:00am 6.2 3.5 3.9 85 1.0 WNW 7 9 4 5 1013.8 1014.5 0.0
04/12:30am 6.7 3.7 4.0 83 1.2 WNW 9 11 5 6 1014.3 1015.0 0.0
04/12:00am 6.5 3.5 4.0 84 1.1 WNW 9 11 5 6 1014.5 1015.2 0.0
 
Date/Time
EST
Temp
°C
App
Temp
°C
Dew
Point
°C
Rel
Hum
%
Delta-T
°C
Wind Press
QNH
hPa
Press
MSL
hPa
Rain since
9am
mm
Dir  Spd
km/h
Gust
km/h
Spd
kts
Gust
kts
03/11:30pm 6.7 3.6 3.7 81 1.3 WNW 9 9 5 5 1014.7 1015.4 0.0
03/11:00pm 7.5 4.5 4.1 79 1.5 WNW 9 11 5 6 1015.0 1015.7 0.0
03/10:30pm 7.8 5.4 4.2 78 1.6 WNW 6 7 3 4 1015.5 1016.2 0.0
03/10:00pm 7.8 5.1 3.8 76 1.8 WNW 7 7 4 4 1015.5 1016.2 0.0
03/09:30pm 7.7 4.9 3.2 73 2.0 WNW 7 9 4 5 1015.7 1016.4 0.0
03/09:00pm 8.1 5.4 2.4 67 2.5 WNW 6 7 3 4 1015.9 1016.6 0.0
03/08:30pm 8.7 5.7 2.3 64 2.8 WNW 7 7 4 4 1015.9 1016.6 0.0
03/08:00pm 9.2 6.4 2.1 61 3.1 WNW 6 7 3 4 1016.2 1016.9 0.0
03/07:30pm 9.4 6.4 2.3 61 3.1 WNW 7 11 4 6 1016.2 1016.9 0.0
03/07:00pm 9.9 7.2 2.5 60 3.3 WNW 6 9 3 5 1016.2 1016.9 0.0
03/06:30pm 10.1 7.4 2.5 59 3.4 WNW 6 9 3 5 1016.2 1016.9 0.0
03/06:00pm 10.4 7.5 2.5 58 3.5 WNW 7 11 4 6 1016.2 1016.9 0.0
03/05:30pm 10.8 6.3 2.4 56 3.7 WNW 15 20 8 11 1015.9 1016.6 0.0
03/05:00pm 11.4 7.3 2.4 54 4.0 NW 13 19 7 10 1015.7 1016.4 0.0
03/04:30pm 11.9 6.7 2.6 53 4.2 NW 19 24 10 13 1015.6 1016.3 0.0
03/04:00pm 12.9 7.5 2.7 50 4.6 NW 20 30 11 16 1015.7 1016.4 0.0
03/03:30pm 13.3 8.1 2.5 48 4.9 NW 19 24 10 13 1015.6 1016.3 0.0
03/03:00pm 13.9 8.9 3.7 50 4.8 NW 19 24 10 13 1015.7 1016.4 0.0
03/02:30pm 13.6 9.0 3.9 52 4.6 WNW 17 24 9 13 1015.9 1016.6 0.0
03/02:00pm 13.6 8.5 2.8 48 5.0 W 19 24 10 13 1016.1 1016.8 0.0
03/01:30pm 14.5 9.2 3.0 46 5.3 NW 20 26 11 14 1016.1 1016.8 0.0
03/01:00pm 14.3 9.9 4.6 52 4.7 NW 17 26 9 14 1016.5 1017.3 0.0
03/12:30pm 14.0 9.4 3.5 49 4.9 NW 17 20 9 11 1017.0 1017.7 0.0
03/12:00pm 13.5 8.9 3.8 52 4.5 NW 17 20 9 11 1017.7 1018.4 0.0
03/11:30am 13.0 9.2 5.7 61 3.6 NW 15 20 8 11 1018.1 1018.9 0.0
03/11:00am 11.4 9.3 5.9 69 2.7 NNE 6 9 3 5 1018.8 1019.5 0.0
03/10:30am 10.0 7.8 5.2 72 2.3 NNE 6 9 3 5 1019.2 1020.0 0.0
03/10:00am 8.3 5.7 4.1 75 1.9 NNE 7 9 4 5 1019.6 1020.4 0.0
03/09:30am 7.4 5.1 4.7 83 1.2 NNE 6 7 3 4 1019.8 1020.6 0.0
03/09:00am 6.3 3.9 4.1 86 1.0 NNE 6 7 3 4 1019.9 1020.7 0.0
03/08:30am 5.0 2.5 3.5 90 0.6 NNE 6 7 3 4 1020.1 1020.9 0.0
03/08:00am 3.3 0.7 3.0 98 0.1 NNE 6 6 3 3 1020.0 1020.8 0.0
03/07:30am 2.7 0.8 2.7 100 0.0 NNE 2 4 1 2 1020.1 1020.9 0.0
03/07:00am 1.5 -0.6 1.4 99 0.0 NNE 2 4 1 2 1019.9 1020.7 0.0
03/06:30am 1.5 -1.1 1.2 98 0.1 W 4 4 2 2 1019.7 1020.5 0.0
03/06:00am 1.7 -0.4 1.4 98 0.1 W 2 4 1 2 1019.6 1020.4 0.0
03/05:30am 1.4 -0.5 0.8 96 0.2 CALM 0 0 0 0 1019.6 1020.4 0.0
03/05:00am 1.4 -0.5 0.5 94 0.3 CALM 0 0 0 0 1019.4 1020.2 0.0
03/04:30am 1.4 -0.5 0.4 93 0.4 CALM 0 0 0 0 1019.5 1020.3 0.0
03/04:00am 2.0 0.1 0.8 92 0.5 CALM 0 0 0 0 1019.8 1020.6 0.0
03/03:30am 1.6 -0.3 0.3 91 0.5 CALM 0 0 0 0 1019.7 1020.5 0.0
03/03:00am 1.7 -0.2 0.5 92 0.5 CALM 0 0 0 0 1020.1 1020.9 0.0
03/02:30am 1.8 -0.1 0.3 90 0.6 CALM 0 0 0 0 1020.8 1021.6 0.0
03/02:00am 1.8 -0.1 0.3 90 0.6 CALM 0 0 0 0 1020.9 1021.7 0.0
03/01:30am 2.5 0.7 1.5 93 0.4 CALM 0 0 0 0 1021.3 1022.1 0.0
03/01:00am 2.5 0.7 1.5 93 0.4 CALM 0 0 0 0 1021.5 1022.3 0.0
03/12:30am 2.8 1.0 1.5 91 0.5 CALM 0 0 0 0 1022.1 1022.9 0.0
03/12:00am 3.1 1.0 1.5 89 0.6 W 2 4 1 2 1022.3 1023.1 0.0
 
Date/Time
EST
Temp
°C
App
Temp
°C
Dew
Point
°C
Rel
Hum
%
Delta-T
°C
Wind Press
QNH
hPa
Press
MSL
hPa
Rain since
9am
mm
Dir  Spd
km/h
Gust
km/h
Spd
kts
Gust
kts
02/11:30pm 2.5 0.6 0.6 87 0.7 CALM 0 0 0 0 1022.6 1023.4 0.0
02/11:00pm 4.1 2.0 1.8 85 0.9 W 2 6 1 3 1022.7 1023.5 0.0
02/10:30pm 4.2 2.1 1.9 85 0.9 W 2 2 1 1 1023.0 1023.8 0.0
02/10:00pm 4.7 3.0 1.9 82 1.2 CALM 0 0 0 0 1023.0 1023.8 0.0
02/09:30pm 4.7 2.9 1.4 79 1.4 CALM 0 0 0 0 1023.1 1023.9 0.0
02/09:00pm 5.1 3.4 1.6 78 1.4 CALM 0 0 0 0 1023.2 1024.1 0.0

Other formats

Comma delimited format used in spreadsheet applications
http://www.bom.gov.au/fwo/IDN60801/IDN60801.94943.axf

JavaScript Object Notation format (JSON) in row-major order
http://www.bom.gov.au/fwo/IDN60801/IDN60801.94943.json

Data quality

Most of these data are generated automatically and are frequently updated. Quality checks on data are not normally performed. It is possible for incorrect values to appear. Refer to information at About Latest Weather Observations and please check the disclaimer before using these data.